createdAt,value
2023-02-22T00:01:51.366Z,2.14
2023-02-22T00:04:21.568Z,2.13
2023-02-22T00:06:51.044Z,2.11
2023-02-22T00:09:21.692Z,2.08
2023-02-22T00:11:50.468Z,2.04
2023-02-22T00:14:21.615Z,2.01
2023-02-22T00:16:51.022Z,2.03
2023-02-22T00:19:19.301Z,2.09
2023-02-22T00:21:53.620Z,2.11
2023-02-22T00:24:24.582Z,2.08
2023-02-22T00:26:58.385Z,2.04
2023-02-22T00:29:27.156Z,1.97
2023-02-22T00:31:55.662Z,1.91
2023-02-22T00:34:24.545Z,1.84
2023-02-22T00:36:53.035Z,1.82
2023-02-22T00:39:21.520Z,1.84
2023-02-22T00:41:50.452Z,1.88
2023-02-22T00:44:20.513Z,1.87
2023-02-22T00:46:49.945Z,1.85
2023-02-22T00:49:18.303Z,1.82
2023-02-22T00:51:46.679Z,1.79
2023-02-22T00:54:20.284Z,1.75
2023-02-22T00:56:50.825Z,1.73
2023-02-22T00:59:19.473Z,1.72
2023-02-22T01:01:47.877Z,1.76
2023-02-22T01:04:18.610Z,1.83
2023-02-22T01:06:47.197Z,1.84
2023-02-22T01:09:18.035Z,1.78
2023-02-22T01:11:46.415Z,1.74
2023-02-22T01:14:15.001Z,1.74
2023-02-22T01:16:44.661Z,1.74
2023-02-22T01:19:16.471Z,1.75
2023-02-22T01:21:44.747Z,1.75
2023-02-22T01:24:16.515Z,1.72
2023-02-22T01:26:52.395Z,1.75
2023-02-22T01:29:21.461Z,1.85
2023-02-22T01:31:55.519Z,1.89
2023-02-22T01:34:24.570Z,1.90
2023-02-22T01:36:53.773Z,1.87
2023-02-22T01:39:22.150Z,1.82
2023-02-22T01:41:50.748Z,1.79
2023-02-22T01:44:32.936Z,1.74
2023-02-22T01:47:02.851Z,1.66
2023-02-22T01:49:52.224Z,1.59
2023-02-22T01:52:21.015Z,1.61
2023-02-22T01:54:52.979Z,1.63
2023-02-22T01:57:25.658Z,1.61
2023-02-22T01:59:59.161Z,1.58
2023-02-22T02:02:27.743Z,1.57
2023-02-22T02:04:56.762Z,1.55
2023-02-22T02:07:29.927Z,1.56
2023-02-22T02:09:59.862Z,1.58
2023-02-22T02:12:30.074Z,1.60
2023-02-22T02:15:21.391Z,1.56
2023-02-22T02:17:50.590Z,1.54
2023-02-22T02:20:37.607Z,1.57
2023-02-22T02:23:24.626Z,1.66
2023-02-22T02:26:31.507Z,1.70
2023-02-22T02:29:21.393Z,1.65
2023-02-22T02:32:08.302Z,1.57
2023-02-22T02:35:01.576Z,1.48
2023-02-22T02:37:49.309Z,1.40
2023-02-22T02:40:32.361Z,1.35
2023-02-22T02:43:26.610Z,1.30
2023-02-22T02:45:59.295Z,1.28
2023-02-22T02:48:28.583Z,1.28
2023-02-22T02:50:58.513Z,1.31
2023-02-22T02:53:36.624Z,1.28
2023-02-22T02:56:06.231Z,1.27
2023-02-22T02:58:42.599Z,1.28
2023-02-22T03:01:11.824Z,1.32
2023-02-22T03:04:05.987Z,1.32
2023-02-22T03:06:44.603Z,1.31
2023-02-22T03:09:29.985Z,1.26
2023-02-22T03:12:20.279Z,1.25
2023-02-22T03:15:03.098Z,1.24
2023-02-22T03:17:44.581Z,1.20
2023-02-22T03:20:16.852Z,1.19
2023-02-22T03:22:53.529Z,1.15
2023-02-22T03:25:34.639Z,1.12
2023-02-22T03:28:07.515Z,1.01
2023-02-22T03:30:42.833Z,1.12
2023-02-22T03:33:15.721Z,1.21
2023-02-22T03:35:50.147Z,1.27
2023-02-22T03:38:19.460Z,1.33
2023-02-22T03:40:51.237Z,1.39
2023-02-22T03:43:26.126Z,1.47
2023-02-22T03:45:56.255Z,1.53
2023-02-22T03:48:38.465Z,1.56
2023-02-22T03:51:08.089Z,1.58
2023-02-22T03:53:37.577Z,1.59
2023-02-22T03:56:08.715Z,1.61
2023-02-22T03:58:39.554Z,1.55
2023-02-22T04:01:08.651Z,1.49
2023-02-22T04:03:37.848Z,1.44
2023-02-22T04:06:07.148Z,1.41
2023-02-22T04:08:36.050Z,1.41
2023-02-22T04:11:04.729Z,1.37
2023-02-22T04:13:33.212Z,1.30
2023-02-22T04:16:01.654Z,1.31
2023-02-22T04:18:30.789Z,1.43
2023-02-22T04:21:04.388Z,1.49
2023-02-22T04:23:40.360Z,1.52
2023-02-22T04:26:09.941Z,1.56
2023-02-22T04:28:38.844Z,1.62
2023-02-22T04:31:26.967Z,1.64
2023-02-22T04:33:57.516Z,1.66
2023-02-22T04:36:31.970Z,1.69
2023-02-22T04:39:01.339Z,1.71
2023-02-22T04:41:31.971Z,1.71
2023-02-22T04:44:00.350Z,1.70
2023-02-22T04:46:31.686Z,1.67
2023-02-22T04:49:00.697Z,1.63
2023-02-22T04:51:32.860Z,1.61
2023-02-22T04:54:04.220Z,1.59
2023-02-22T04:56:35.666Z,1.53
2023-02-22T04:59:06.190Z,1.52
2023-02-22T05:01:37.544Z,1.61
2023-02-22T05:04:07.416Z,1.67
2023-02-22T05:06:35.732Z,1.69
2023-02-22T05:09:04.525Z,1.67
2023-02-22T05:11:35.561Z,1.60
2023-02-22T05:14:04.041Z,1.55
2023-02-22T05:16:34.476Z,1.51
2023-02-22T05:19:04.387Z,1.44
2023-02-22T05:21:33.578Z,1.40
2023-02-22T05:24:02.370Z,1.34
2023-02-22T05:26:31.054Z,1.27
2023-02-22T05:29:00.566Z,1.19
2023-02-22T05:31:29.733Z,1.06
2023-02-22T05:33:58.752Z,0.91
2023-02-22T05:36:28.374Z,0.78
2023-02-22T05:38:56.739Z,0.71
2023-02-22T05:41:25.343Z,0.71
2023-02-22T05:43:53.704Z,0.71
2023-02-22T05:46:22.114Z,0.73
2023-02-22T05:48:50.871Z,0.77
2023-02-22T05:51:19.967Z,0.76
2023-02-22T05:53:48.448Z,0.75
2023-02-22T05:56:24.407Z,0.73
2023-02-22T05:58:52.888Z,0.72
2023-02-22T06:01:21.988Z,0.70
2023-02-22T06:03:50.911Z,0.67
2023-02-22T06:06:22.256Z,0.62
2023-02-22T06:08:51.356Z,0.57
2023-02-22T06:11:20.113Z,0.51
2023-02-22T06:13:59.852Z,0.47
2023-02-22T06:16:28.453Z,0.38
2023-02-22T06:18:56.924Z,0.34
2023-02-22T06:21:25.316Z,0.37
2023-02-22T06:23:53.780Z,0.39
2023-02-22T06:26:23.290Z,0.37
2023-02-22T06:28:51.868Z,0.37
2023-02-22T06:31:21.515Z,0.42
2023-02-22T06:33:49.973Z,0.47
2023-02-22T06:36:19.157Z,0.51
2023-02-22T06:38:47.845Z,0.46
2023-02-22T06:41:16.549Z,0.57
2023-02-22T06:43:47.733Z,0.59
2023-02-22T06:46:16.259Z,0.59
2023-02-22T06:48:44.861Z,0.57
2023-02-22T06:51:13.426Z,0.55
2023-02-22T06:53:45.935Z,0.55
2023-02-22T06:56:14.484Z,0.60
2023-02-22T06:58:43.486Z,0.70
2023-02-22T07:01:12.226Z,0.72
2023-02-22T07:03:41.119Z,0.73
2023-02-22T07:06:11.085Z,0.77
2023-02-22T07:08:40.077Z,0.79
2023-02-22T07:11:09.068Z,0.75
2023-02-22T07:13:38.061Z,0.71
2023-02-22T07:16:09.535Z,0.69
2023-02-22T07:18:39.020Z,0.66
2023-02-22T07:21:08.042Z,0.56
2023-02-22T07:23:37.066Z,0.65
2023-02-22T07:26:08.464Z,0.69
2023-02-22T07:28:37.250Z,0.72
2023-02-22T07:31:05.734Z,0.72
2023-02-22T07:33:34.523Z,0.74
2023-02-22T07:36:02.904Z,0.76
2023-02-22T07:38:32.510Z,0.78
2023-02-22T07:41:02.014Z,0.79
2023-02-22T07:43:31.930Z,0.82
2023-02-22T07:46:03.137Z,0.86
2023-02-22T07:48:32.576Z,0.95
2023-02-22T07:51:01.070Z,1.05
2023-02-22T07:53:31.287Z,1.14
2023-02-22T07:56:01.590Z,1.22
2023-02-22T07:58:30.815Z,1.25
2023-02-22T08:01:02.542Z,1.27
2023-02-22T08:03:34.493Z,1.27
2023-02-22T08:06:03.434Z,1.24
2023-02-22T08:08:32.759Z,1.24
2023-02-22T08:11:01.417Z,1.23
2023-02-22T08:13:30.517Z,1.22
2023-02-22T08:16:00.741Z,1.21
2023-02-22T08:18:30.143Z,1.17
2023-02-22T08:21:00.572Z,1.15
2023-02-22T08:23:29.792Z,1.15
2023-02-22T08:25:58.150Z,1.16
2023-02-22T08:28:26.628Z,1.17
2023-02-22T08:30:55.227Z,1.19
2023-02-22T08:33:26.069Z,1.19
2023-02-22T08:35:55.251Z,1.19
2023-02-22T08:38:27.933Z,1.18
2023-02-22T08:40:56.832Z,1.17
2023-02-22T08:43:25.302Z,1.21
2023-02-22T08:45:56.905Z,1.36
2023-02-22T08:48:25.761Z,1.45
2023-02-22T08:50:55.662Z,1.48
2023-02-22T08:53:25.090Z,1.54
2023-02-22T08:55:53.552Z,1.59
2023-02-22T08:58:24.404Z,1.61
2023-02-22T09:00:54.213Z,1.60
2023-02-22T09:03:23.810Z,1.62
2023-02-22T09:05:52.622Z,1.66
2023-02-22T09:08:23.029Z,1.59
2023-02-22T09:10:51.410Z,1.66
2023-02-22T09:13:21.324Z,1.67
2023-02-22T09:15:50.740Z,1.70
2023-02-22T09:18:19.303Z,1.70
2023-02-22T09:20:52.394Z,1.60
2023-02-22T09:23:24.356Z,1.68
2023-02-22T09:26:52.231Z,1.77
2023-02-22T09:29:25.089Z,1.77
2023-02-22T09:31:54.945Z,1.72
2023-02-22T09:34:29.729Z,1.73
2023-02-22T09:36:59.060Z,1.67
2023-02-22T09:39:27.585Z,1.65
2023-02-22T09:42:01.964Z,1.65
2023-02-22T09:44:54.106Z,1.66
2023-02-22T09:47:32.665Z,1.72
2023-02-22T09:50:16.261Z,1.76
2023-02-22T09:52:57.072Z,1.78
2023-02-22T09:55:57.770Z,1.71
2023-02-22T09:58:33.763Z,1.67
2023-02-22T10:01:29.813Z,1.67
2023-02-22T10:04:24.970Z,1.71
2023-02-22T10:07:06.354Z,1.72
2023-02-22T10:09:38.008Z,1.73
2023-02-22T10:12:19.393Z,1.67
2023-02-22T10:15:16.445Z,1.66
2023-02-22T10:18:00.488Z,1.65
2023-02-22T10:20:55.490Z,1.67
2023-02-22T10:23:35.235Z,1.66
2023-02-22T10:26:33.623Z,1.66
2023-02-22T10:29:37.026Z,1.74
2023-02-22T10:32:06.426Z,1.75
2023-02-22T10:34:42.907Z,1.74
2023-02-22T10:37:17.460Z,1.77
2023-02-22T10:39:47.091Z,1.82
2023-02-22T10:42:16.030Z,1.88
2023-02-22T10:44:45.225Z,1.93
2023-02-22T10:47:20.046Z,1.93
2023-02-22T10:49:56.933Z,1.91
2023-02-22T10:52:32.792Z,1.94
2023-02-22T10:55:14.720Z,1.94
2023-02-22T10:57:49.841Z,1.95
2023-02-22T11:00:26.596Z,1.94
2023-02-22T11:03:02.559Z,1.89
2023-02-22T11:05:37.383Z,1.86
2023-02-22T11:08:21.329Z,1.85
2023-02-22T11:10:51.725Z,1.84
2023-02-22T11:13:31.815Z,1.82
2023-02-22T11:16:18.363Z,1.81
2023-02-22T11:18:47.845Z,1.79
2023-02-22T11:21:22.841Z,1.76
2023-02-22T11:24:01.989Z,1.73
2023-02-22T11:26:44.055Z,1.69
2023-02-22T11:29:33.465Z,1.70
2023-02-22T11:32:14.674Z,1.70
2023-02-22T11:34:52.820Z,1.66
2023-02-22T11:37:35.050Z,1.63
2023-02-22T11:40:12.437Z,1.62
2023-02-22T11:42:43.995Z,1.57
2023-02-22T11:45:13.195Z,1.55
2023-02-22T11:47:55.702Z,1.56
2023-02-22T11:50:34.120Z,1.65
2023-02-22T11:53:22.374Z,1.75
2023-02-22T11:56:37.627Z,1.83
2023-02-22T11:59:21.791Z,1.77
2023-02-22T12:01:54.677Z,1.77
2023-02-22T12:04:30.112Z,1.77
2023-02-22T12:07:10.693Z,1.67
2023-02-22T12:10:20.950Z,1.63
2023-02-22T12:13:09.922Z,1.72
2023-02-22T12:15:50.925Z,1.81
2023-02-22T12:18:48.142Z,1.82
2023-02-22T12:21:17.995Z,1.75
2023-02-22T12:24:09.072Z,1.68
2023-02-22T12:26:41.545Z,1.56
2023-02-22T12:29:41.779Z,1.43
2023-02-22T12:32:12.497Z,1.41
2023-02-22T12:34:50.309Z,1.35
2023-02-22T12:37:24.633Z,1.31
2023-02-22T12:40:27.521Z,1.35
2023-02-22T12:43:17.509Z,1.30
2023-02-22T12:46:01.594Z,1.17
2023-02-22T12:48:35.881Z,1.18
2023-02-22T12:51:10.000Z,1.24
2023-02-22T12:53:40.828Z,1.29
2023-02-22T12:56:16.787Z,1.33
2023-02-22T12:58:49.872Z,1.31
2023-02-22T13:01:20.510Z,1.34
2023-02-22T13:03:49.497Z,1.22
2023-02-22T13:06:40.316Z,1.06
2023-02-22T13:09:39.709Z,0.83
2023-02-22T13:12:16.080Z,0.76
2023-02-22T13:14:51.420Z,0.69
2023-02-22T13:17:32.601Z,0.67
2023-02-22T13:20:07.330Z,0.66
2023-02-22T13:22:38.981Z,0.64
2023-02-22T13:25:16.387Z,0.56
2023-02-22T13:27:55.709Z,0.51
2023-02-22T13:31:03.267Z,0.50
2023-02-22T13:34:13.275Z,0.45
2023-02-22T13:36:42.155Z,0.36
2023-02-22T13:39:46.279Z,0.20
2023-02-22T13:42:44.241Z,0.24
2023-02-22T13:45:20.095Z,0.25
2023-02-22T13:47:58.101Z,0.30
2023-02-22T13:50:48.292Z,0.34
2023-02-22T13:53:28.659Z,0.34
2023-02-22T13:56:00.577Z,0.34
2023-02-22T13:58:29.307Z,0.35
2023-02-22T14:00:59.267Z,0.37
2023-02-22T14:03:36.621Z,0.41
2023-02-22T14:06:06.527Z,0.34
2023-02-22T14:08:34.936Z,0.22
2023-02-22T14:11:12.911Z,0.20
2023-02-22T14:14:01.167Z,0.23
2023-02-22T14:16:31.739Z,0.31
2023-02-22T14:19:06.789Z,0.43
2023-02-22T14:21:36.132Z,0.55
2023-02-22T14:24:09.121Z,0.55
2023-02-22T14:26:38.726Z,0.56
2023-02-22T14:29:10.593Z,0.61
2023-02-22T14:31:43.596Z,0.66
2023-02-22T14:34:22.914Z,0.71
2023-02-22T14:36:55.917Z,0.72
2023-02-22T14:39:44.454Z,0.66
2023-02-22T14:42:41.641Z,0.60
2023-02-22T14:45:09.909Z,0.54
2023-02-22T14:47:50.253Z,0.37
2023-02-22T14:50:30.403Z,0.40
2023-02-22T14:53:04.720Z,0.29
2023-02-22T14:55:37.918Z,0.32
2023-02-22T14:58:18.992Z,0.35
2023-02-22T15:00:49.415Z,0.44
2023-02-22T15:03:24.144Z,0.56
2023-02-22T15:05:53.750Z,0.59
2023-02-22T15:08:28.478Z,0.63
2023-02-22T15:10:56.891Z,0.74
2023-02-22T15:13:27.493Z,0.81
2023-02-22T15:16:02.153Z,0.88
2023-02-22T15:18:52.310Z,0.94
2023-02-22T15:21:23.771Z,0.97
2023-02-22T15:24:00.555Z,0.95
2023-02-22T15:26:44.264Z,0.94
2023-02-22T15:29:23.350Z,0.96
2023-02-22T15:31:53.157Z,0.90
2023-02-22T15:34:27.181Z,0.88
2023-02-22T15:36:57.875Z,0.92
2023-02-22T15:39:34.515Z,0.95
2023-02-22T15:42:19.518Z,0.99
2023-02-22T15:44:49.613Z,1.02
2023-02-22T15:47:22.571Z,1.08
2023-02-22T15:50:21.635Z,1.11
2023-02-22T15:52:53.597Z,1.14
2023-02-22T15:55:25.655Z,1.14
2023-02-22T15:57:55.879Z,1.15
2023-02-22T16:00:38.558Z,1.03
2023-02-22T16:03:09.553Z,1.09
2023-02-22T16:05:50.817Z,1.08
2023-02-22T16:08:23.988Z,1.12
2023-02-22T16:11:03.656Z,1.15
2023-02-22T16:13:34.199Z,1.21
2023-02-22T16:16:24.944Z,1.21
2023-02-22T16:18:53.780Z,1.13
2023-02-22T16:21:22.568Z,1.06
2023-02-22T16:23:55.990Z,1.02
2023-02-22T16:26:31.827Z,0.97
2023-02-22T16:29:02.504Z,0.99
2023-02-22T16:31:34.030Z,1.07
2023-02-22T16:34:03.516Z,0.99
2023-02-22T16:36:42.245Z,0.94
2023-02-22T16:39:14.816Z,1.01
2023-02-22T16:41:43.953Z,1.05
2023-02-22T16:44:13.280Z,1.09
2023-02-22T16:46:45.481Z,1.09
2023-02-22T16:49:14.996Z,1.08
2023-02-22T16:52:01.915Z,1.03
2023-02-22T16:54:34.578Z,0.96
2023-02-22T16:57:04.619Z,0.93
2023-02-22T16:59:33.489Z,0.87
2023-02-22T17:02:01.982Z,0.77
2023-02-22T17:04:31.594Z,0.71
2023-02-22T17:07:00.379Z,0.71
2023-02-22T17:09:28.856Z,0.70
2023-02-22T17:11:58.255Z,0.71
2023-02-22T17:14:30.934Z,0.70
2023-02-22T17:17:00.552Z,0.70
2023-02-22T17:19:29.436Z,0.68
2023-02-22T17:21:58.326Z,0.65
2023-02-22T17:24:29.550Z,0.61
2023-02-22T17:26:59.593Z,0.58
2023-02-22T17:29:29.917Z,0.57
2023-02-22T17:31:59.519Z,0.57
2023-02-22T17:34:28.420Z,0.56
2023-02-22T17:36:56.872Z,0.54
2023-02-22T17:39:27.650Z,0.53
2023-02-22T17:41:57.980Z,0.50
2023-02-22T17:44:26.562Z,0.46
2023-02-22T17:46:56.985Z,0.42
2023-02-22T17:49:25.462Z,0.41
2023-02-22T17:51:55.897Z,0.41
2023-02-22T17:54:26.017Z,0.31
2023-02-22T17:56:54.708Z,0.31
2023-02-22T17:59:23.179Z,0.25
2023-02-22T18:01:53.092Z,0.19
2023-02-22T18:04:21.987Z,0.14
2023-02-22T18:06:52.018Z,0.04
2023-02-22T18:09:23.597Z,-0.05
2023-02-22T18:11:52.550Z,-0.06
2023-02-22T18:14:20.948Z,-0.14
2023-02-22T18:16:49.626Z,-0.21
2023-02-22T18:19:20.997Z,-0.24
2023-02-22T18:21:52.827Z,-0.30
2023-02-22T18:24:21.621Z,-0.33
2023-02-22T18:26:50.697Z,-0.33
2023-02-22T18:29:19.402Z,-0.27
2023-02-22T18:31:47.895Z,-0.23
2023-02-22T18:34:17.903Z,-0.23
2023-02-22T18:36:46.806Z,-0.26
2023-02-22T18:39:15.278Z,-0.25
2023-02-22T18:41:48.169Z,-0.20
2023-02-22T18:44:16.749Z,-0.19
2023-02-22T18:46:45.241Z,-0.20
2023-02-22T18:49:14.749Z,-0.19
2023-02-22T18:51:45.066Z,-0.14
2023-02-22T18:54:13.548Z,-0.11
2023-02-22T18:56:42.373Z,-0.09
2023-02-22T18:59:12.391Z,-0.06
2023-02-22T19:01:49.392Z,-0.08
2023-02-22T19:04:19.061Z,-0.12
2023-02-22T19:06:50.097Z,-0.21
2023-02-22T19:09:18.590Z,-0.27
2023-02-22T19:11:48.599Z,-0.29
2023-02-22T19:14:18.358Z,-0.24
2023-02-22T19:16:47.513Z,-0.12
2023-02-22T19:19:21.022Z,-0.03
2023-02-22T19:21:50.211Z,0.01
2023-02-22T19:24:19.211Z,0.04
2023-02-22T19:26:51.899Z,0.05
2023-02-22T19:29:25.590Z,0.06
2023-02-22T19:31:54.897Z,0.06
2023-02-22T19:34:25.019Z,0.05
2023-02-22T19:36:53.293Z,0.04
2023-02-22T19:41:56.033Z,-0.02
2023-02-22T19:44:24.947Z,0.00
2023-02-22T19:46:57.159Z,0.01
2023-02-22T19:49:28.202Z,0.03
2023-02-22T19:51:58.349Z,0.06
2023-02-22T19:54:27.827Z,0.16
2023-02-22T19:56:58.360Z,0.21
2023-02-22T19:59:26.830Z,0.26
2023-02-22T20:01:55.788Z,0.34
2023-02-22T20:04:30.729Z,0.40
2023-02-22T20:07:00.382Z,0.46
2023-02-22T20:09:49.962Z,0.52
2023-02-22T20:12:18.338Z,0.53
2023-02-22T20:14:47.031Z,0.50
2023-02-22T20:17:15.611Z,0.48
2023-02-22T20:19:44.708Z,0.47
2023-02-22T20:22:13.095Z,0.46
2023-02-22T20:24:42.292Z,0.43
2023-02-22T20:27:10.774Z,0.41
2023-02-22T20:29:39.771Z,0.38
2023-02-22T20:32:10.611Z,0.38
2023-02-22T20:34:38.986Z,0.44
2023-02-22T20:37:07.677Z,0.49
2023-02-22T20:39:36.272Z,0.54
2023-02-22T20:42:07.122Z,0.58
2023-02-22T20:44:35.584Z,0.59
2023-02-22T20:47:05.396Z,0.58
2023-02-22T20:49:36.143Z,0.57
2023-02-22T20:52:05.027Z,0.47
2023-02-22T20:54:38.323Z,0.39
2023-02-22T20:57:08.344Z,0.39
2023-02-22T20:59:37.439Z,0.38
2023-02-22T21:02:06.751Z,0.26
2023-02-22T21:04:35.676Z,0.31
2023-02-22T21:07:04.445Z,0.27
2023-02-22T21:09:34.996Z,0.26
2023-02-22T21:12:13.508Z,0.25
2023-02-22T21:14:44.520Z,0.31
2023-02-22T21:17:12.899Z,0.42
2023-02-22T21:19:42.407Z,0.49
2023-02-22T21:22:12.433Z,0.51
2023-02-22T21:24:42.660Z,0.50
2023-02-22T21:27:12.571Z,0.42
2023-02-22T21:29:40.949Z,0.37
2023-02-22T21:32:10.033Z,0.33
2023-02-22T21:34:39.118Z,0.27
2023-02-22T21:37:08.458Z,0.21
2023-02-22T21:39:39.497Z,0.13
2023-02-22T21:44:30.521Z,-0.27
2023-02-22T21:46:59.330Z,-0.55
2023-02-22T21:49:31.788Z,-0.79
2023-02-22T21:52:00.485Z,-0.98
2023-02-22T21:54:29.165Z,-1.13
2023-02-22T21:56:57.644Z,-1.23
2023-02-22T21:59:25.930Z,-1.30
2023-02-22T22:01:57.585Z,-1.39
2023-02-22T22:04:28.740Z,-1.48
2023-02-22T22:06:58.765Z,-1.56
2023-02-22T22:09:29.297Z,-1.70
2023-02-22T22:12:03.090Z,-1.78
2023-02-22T22:14:34.447Z,-1.86
2023-02-22T22:17:09.885Z,-1.89
2023-02-22T22:19:39.609Z,-1.96
2023-02-22T22:22:08.117Z,-2.05
2023-02-22T22:24:38.302Z,-2.10
2023-02-22T22:27:10.063Z,-2.23
2023-02-22T22:29:39.167Z,-2.33
2023-02-22T22:32:09.330Z,-2.36
2023-02-22T22:34:38.141Z,-2.39
2023-02-22T22:37:06.473Z,-2.44
2023-02-22T22:39:34.842Z,-2.47
2023-02-22T22:42:03.729Z,-2.48
2023-02-22T22:44:41.229Z,-2.49
2023-02-22T22:47:12.686Z,-2.53
2023-02-22T22:49:42.953Z,-2.59
2023-02-22T22:52:14.115Z,-2.62
2023-02-22T22:54:43.675Z,-2.64
2023-02-22T22:57:12.469Z,-2.65
2023-02-22T22:59:40.844Z,-2.66
2023-02-22T23:02:11.692Z,-2.62
2023-02-22T23:04:40.360Z,-2.59
2023-02-22T23:07:11.399Z,-2.58
2023-02-22T23:09:41.829Z,-2.57
2023-02-22T23:12:18.002Z,-2.57
2023-02-22T23:14:52.313Z,-2.62
2023-02-22T23:17:41.378Z,-2.66
2023-02-22T23:20:13.969Z,-2.65
2023-02-22T23:22:47.479Z,-2.68
2023-02-22T23:25:20.055Z,-2.68
2023-02-22T23:27:49.327Z,-2.63
2023-02-22T23:30:20.693Z,-2.62
2023-02-22T23:32:50.305Z,-2.61
2023-02-22T23:35:19.416Z,-2.60
2023-02-22T23:37:53.635Z,-2.65
2023-02-22T23:40:22.105Z,-2.71
2023-02-22T23:42:51.408Z,-2.76
2023-02-22T23:45:22.961Z,-2.81
2023-02-22T23:47:55.115Z,-2.79
2023-02-22T23:50:27.203Z,-2.81
2023-02-22T23:52:59.070Z,-2.85
2023-02-22T23:55:31.747Z,-2.86
2023-02-22T23:58:00.131Z,-2.86
